sensor_id;sensor_type;location;lat;lon;timestamp;temperature;humidity
49132;DHT22;35149;51.196;6.204;2023-12-20T00:01:18;11.10;82.90
49132;DHT22;35149;51.196;6.204;2023-12-20T00:03:50;11.10;82.90
49132;DHT22;35149;51.196;6.204;2023-12-20T00:06:18;11.10;82.90
49132;DHT22;35149;51.196;6.204;2023-12-20T00:08:45;11.00;82.80
49132;DHT22;35149;51.196;6.204;2023-12-20T00:11:17;11.00;82.80
49132;DHT22;35149;51.196;6.204;2023-12-20T00:13:44;11.00;82.80
49132;DHT22;35149;51.196;6.204;2023-12-20T00:16:17;11.00;82.60
49132;DHT22;35149;51.196;6.204;2023-12-20T00:18:51;11.00;82.50
49132;DHT22;35149;51.196;6.204;2023-12-20T00:21:20;11.00;82.50
49132;DHT22;35149;51.196;6.204;2023-12-20T00:23:50;11.00;82.40
49132;DHT22;35149;51.196;6.204;2023-12-20T00:26:19;10.90;82.30
49132;DHT22;35149;51.196;6.204;2023-12-20T00:28:48;10.90;82.10
49132;DHT22;35149;51.196;6.204;2023-12-20T00:31:15;10.90;82.00
49132;DHT22;35149;51.196;6.204;2023-12-20T00:33:45;10.80;81.80
49132;DHT22;35149;51.196;6.204;2023-12-20T00:36:13;10.80;81.60
49132;DHT22;35149;51.196;6.204;2023-12-20T00:38:40;10.80;81.40
49132;DHT22;35149;51.196;6.204;2023-12-20T00:41:09;10.70;81.20
49132;DHT22;35149;51.196;6.204;2023-12-20T00:43:36;10.70;81.00
49132;DHT22;35149;51.196;6.204;2023-12-20T00:46:02;10.60;81.00
49132;DHT22;35149;51.196;6.204;2023-12-20T00:48:37;10.60;81.10
49132;DHT22;35149;51.196;6.204;2023-12-20T00:51:07;10.60;81.30
49132;DHT22;35149;51.196;6.204;2023-12-20T00:53:33;10.60;81.30
49132;DHT22;35149;51.196;6.204;2023-12-20T00:56:02;10.50;81.20
49132;DHT22;35149;51.196;6.204;2023-12-20T00:58:29;10.50;80.90
49132;DHT22;35149;51.196;6.204;2023-12-20T01:00:58;10.50;80.80
49132;DHT22;35149;51.196;6.204;2023-12-20T01:03:28;10.50;80.70
49132;DHT22;35149;51.196;6.204;2023-12-20T01:05:54;10.40;80.50
49132;DHT22;35149;51.196;6.204;2023-12-20T01:08:21;10.40;80.50
49132;DHT22;35149;51.196;6.204;2023-12-20T01:10:48;10.30;80.20
49132;DHT22;35149;51.196;6.204;2023-12-20T01:13:16;10.30;80.10
49132;DHT22;35149;51.196;6.204;2023-12-20T01:15:43;10.20;80.10
49132;DHT22;35149;51.196;6.204;2023-12-20T01:18:15;10.20;80.10
49132;DHT22;35149;51.196;6.204;2023-12-20T01:20:42;10.20;80.20
49132;DHT22;35149;51.196;6.204;2023-12-20T01:23:09;10.10;80.20
49132;DHT22;35149;51.196;6.204;2023-12-20T01:25:35;10.10;80.30
49132;DHT22;35149;51.196;6.204;2023-12-20T01:28:02;10.10;80.30
49132;DHT22;35149;51.196;6.204;2023-12-20T01:30:31;10.00;80.10
49132;DHT22;35149;51.196;6.204;2023-12-20T01:33:00;10.00;79.90
49132;DHT22;35149;51.196;6.204;2023-12-20T01:35:29;9.90;79.70
49132;DHT22;35149;51.196;6.204;2023-12-20T01:37:59;9.90;79.60
49132;DHT22;35149;51.196;6.204;2023-12-20T01:40:25;9.80;79.50
49132;DHT22;35149;51.196;6.204;2023-12-20T01:43:01;9.80;79.60
49132;DHT22;35149;51.196;6.204;2023-12-20T01:45:28;9.70;79.50
49132;DHT22;35149;51.196;6.204;2023-12-20T01:47:57;9.70;79.60
49132;DHT22;35149;51.196;6.204;2023-12-20T01:50:24;9.60;79.60
49132;DHT22;35149;51.196;6.204;2023-12-20T01:52:54;9.50;79.60
49132;DHT22;35149;51.196;6.204;2023-12-20T01:55:31;9.50;79.80
49132;DHT22;35149;51.196;6.204;2023-12-20T01:58:01;9.50;79.80
49132;DHT22;35149;51.196;6.204;2023-12-20T02:00:29;9.40;79.80
49132;DHT22;35149;51.196;6.204;2023-12-20T02:03:01;9.40;80.00
49132;DHT22;35149;51.196;6.204;2023-12-20T02:05:31;9.40;80.10
49132;DHT22;35149;51.196;6.204;2023-12-20T02:07:58;9.30;80.30
49132;DHT22;35149;51.196;6.204;2023-12-20T02:10:25;9.30;80.60
49132;DHT22;35149;51.196;6.204;2023-12-20T02:12:55;9.30;80.60
49132;DHT22;35149;51.196;6.204;2023-12-20T02:15:23;9.20;80.60
49132;DHT22;35149;51.196;6.204;2023-12-20T02:17:50;9.20;80.50
49132;DHT22;35149;51.196;6.204;2023-12-20T02:20:17;9.20;80.50
49132;DHT22;35149;51.196;6.204;2023-12-20T02:22:44;9.20;80.60
49132;DHT22;35149;51.196;6.204;2023-12-20T02:25:14;9.20;80.80
49132;DHT22;35149;51.196;6.204;2023-12-20T02:27:40;9.20;80.90
49132;DHT22;35149;51.196;6.204;2023-12-20T02:30:08;9.20;80.80
49132;DHT22;35149;51.196;6.204;2023-12-20T02:32:35;9.20;80.70
49132;DHT22;35149;51.196;6.204;2023-12-20T02:35:04;9.20;80.60
49132;DHT22;35149;51.196;6.204;2023-12-20T02:37:35;9.10;80.40
49132;DHT22;35149;51.196;6.204;2023-12-20T02:40:01;9.10;80.40
49132;DHT22;35149;51.196;6.204;2023-12-20T02:42:30;9.10;80.40
49132;DHT22;35149;51.196;6.204;2023-12-20T02:45:02;9.10;80.30
49132;DHT22;35149;51.196;6.204;2023-12-20T02:47:29;9.10;80.30
49132;DHT22;35149;51.196;6.204;2023-12-20T02:49:59;9.00;80.30
49132;DHT22;35149;51.196;6.204;2023-12-20T02:52:29;9.00;80.40
49132;DHT22;35149;51.196;6.204;2023-12-20T02:54:56;9.00;80.60
49132;DHT22;35149;51.196;6.204;2023-12-20T02:57:23;8.90;80.80
49132;DHT22;35149;51.196;6.204;2023-12-20T02:59:52;8.90;81.00
49132;DHT22;35149;51.196;6.204;2023-12-20T03:02:21;8.90;81.20
49132;DHT22;35149;51.196;6.204;2023-12-20T03:04:48;9.00;81.40
49132;DHT22;35149;51.196;6.204;2023-12-20T03:07:15;9.00;81.50
49132;DHT22;35149;51.196;6.204;2023-12-20T03:09:41;9.00;81.60
49132;DHT22;35149;51.196;6.204;2023-12-20T03:12:28;9.00;81.50
49132;DHT22;35149;51.196;6.204;2023-12-20T03:14:57;9.10;81.30
49132;DHT22;35149;51.196;6.204;2023-12-20T03:17:29;9.10;81.10
49132;DHT22;35149;51.196;6.204;2023-12-20T03:19:56;9.10;81.10
49132;DHT22;35149;51.196;6.204;2023-12-20T03:22:30;9.10;81.10
49132;DHT22;35149;51.196;6.204;2023-12-20T03:24:59;9.10;81.10
49132;DHT22;35149;51.196;6.204;2023-12-20T03:27:27;9.10;80.90
49132;DHT22;35149;51.196;6.204;2023-12-20T03:29:53;9.10;80.80
49132;DHT22;35149;51.196;6.204;2023-12-20T03:32:20;9.10;80.70
49132;DHT22;35149;51.196;6.204;2023-12-20T03:34:51;9.10;80.50
49132;DHT22;35149;51.196;6.204;2023-12-20T03:37:22;9.10;80.40
49132;DHT22;35149;51.196;6.204;2023-12-20T03:39:52;9.10;80.20
49132;DHT22;35149;51.196;6.204;2023-12-20T03:42:21;9.00;80.10
49132;DHT22;35149;51.196;6.204;2023-12-20T03:44:55;9.00;80.00
49132;DHT22;35149;51.196;6.204;2023-12-20T03:47:24;9.00;80.10
49132;DHT22;35149;51.196;6.204;2023-12-20T03:49:59;8.90;80.10
49132;DHT22;35149;51.196;6.204;2023-12-20T03:52:32;8.90;80.20
49132;DHT22;35149;51.196;6.204;2023-12-20T03:55:01;8.90;80.30
49132;DHT22;35149;51.196;6.204;2023-12-20T03:57:29;8.90;80.20
49132;DHT22;35149;51.196;6.204;2023-12-20T03:59:56;8.90;80.10
49132;DHT22;35149;51.196;6.204;2023-12-20T04:02:23;8.80;80.10
49132;DHT22;35149;51.196;6.204;2023-12-20T04:04:49;8.80;80.10
49132;DHT22;35149;51.196;6.204;2023-12-20T04:07:18;8.80;80.20
49132;DHT22;35149;51.196;6.204;2023-12-20T04:09:48;8.70;80.10
49132;DHT22;35149;51.196;6.204;2023-12-20T04:12:18;8.70;80.10
49132;DHT22;35149;51.196;6.204;2023-12-20T04:14:47;8.70;80.20
49132;DHT22;35149;51.196;6.204;2023-12-20T04:17:20;8.70;80.40
49132;DHT22;35149;51.196;6.204;2023-12-20T04:19:56;8.70;80.40
49132;DHT22;35149;51.196;6.204;2023-12-20T04:22:28;8.70;80.60
49132;DHT22;35149;51.196;6.204;2023-12-20T04:24:55;8.70;80.50
49132;DHT22;35149;51.196;6.204;2023-12-20T04:27:26;8.60;80.40
49132;DHT22;35149;51.196;6.204;2023-12-20T04:29:55;8.60;80.40
49132;DHT22;35149;51.196;6.204;2023-12-20T04:32:22;8.60;80.30
49132;DHT22;35149;51.196;6.204;2023-12-20T04:34:48;8.60;80.30
49132;DHT22;35149;51.196;6.204;2023-12-20T04:37:16;8.50;80.90
49132;DHT22;35149;51.196;6.204;2023-12-20T04:39:50;8.50;80.40
49132;DHT22;35149;51.196;6.204;2023-12-20T04:42:17;8.50;80.60
49132;DHT22;35149;51.196;6.204;2023-12-20T04:44:43;8.50;80.70
49132;DHT22;35149;51.196;6.204;2023-12-20T04:47:13;8.50;80.90
49132;DHT22;35149;51.196;6.204;2023-12-20T04:49:42;8.50;81.10
49132;DHT22;35149;51.196;6.204;2023-12-20T04:52:09;8.50;81.20
49132;DHT22;35149;51.196;6.204;2023-12-20T04:54:38;8.60;81.40
49132;DHT22;35149;51.196;6.204;2023-12-20T04:57:13;8.60;81.40
49132;DHT22;35149;51.196;6.204;2023-12-20T04:59:40;8.60;81.40
49132;DHT22;35149;51.196;6.204;2023-12-20T05:02:07;8.70;81.50
49132;DHT22;35149;51.196;6.204;2023-12-20T05:04:34;8.70;81.40
49132;DHT22;35149;51.196;6.204;2023-12-20T05:07:04;8.70;81.40
49132;DHT22;35149;51.196;6.204;2023-12-20T05:09:32;8.80;81.50
49132;DHT22;35149;51.196;6.204;2023-12-20T05:12:01;8.80;81.40
49132;DHT22;35149;51.196;6.204;2023-12-20T05:14:28;8.80;81.30
49132;DHT22;35149;51.196;6.204;2023-12-20T05:16:54;8.80;81.30
49132;DHT22;35149;51.196;6.204;2023-12-20T05:19:21;8.90;81.30
49132;DHT22;35149;51.196;6.204;2023-12-20T05:21:52;8.90;81.30
49132;DHT22;35149;51.196;6.204;2023-12-20T05:24:18;8.90;81.20
49132;DHT22;35149;51.196;6.204;2023-12-20T05:26:45;8.90;81.20
49132;DHT22;35149;51.196;6.204;2023-12-20T05:29:19;9.00;81.20
49132;DHT22;35149;51.196;6.204;2023-12-20T05:31:48;9.00;81.10
49132;DHT22;35149;51.196;6.204;2023-12-20T05:34:14;9.00;81.20
49132;DHT22;35149;51.196;6.204;2023-12-20T05:36:46;9.00;81.20
49132;DHT22;35149;51.196;6.204;2023-12-20T05:39:13;9.10;81.10
49132;DHT22;35149;51.196;6.204;2023-12-20T05:41:40;9.10;81.00
49132;DHT22;35149;51.196;6.204;2023-12-20T05:44:06;9.10;81.00
49132;DHT22;35149;51.196;6.204;2023-12-20T05:46:36;9.10;80.90
49132;DHT22;35149;51.196;6.204;2023-12-20T05:49:06;9.10;81.00
49132;DHT22;35149;51.196;6.204;2023-12-20T05:51:35;9.10;80.80
49132;DHT22;35149;51.196;6.204;2023-12-20T05:54:05;9.10;80.80
49132;DHT22;35149;51.196;6.204;2023-12-20T05:56:34;9.20;80.80
49132;DHT22;35149;51.196;6.204;2023-12-20T05:59:03;9.20;80.80
49132;DHT22;35149;51.196;6.204;2023-12-20T06:01:32;9.20;80.40
49132;DHT22;35149;51.196;6.204;2023-12-20T06:03:59;9.20;80.40
49132;DHT22;35149;51.196;6.204;2023-12-20T06:06:28;9.20;80.50
49132;DHT22;35149;51.196;6.204;2023-12-20T06:08:57;9.20;80.50
49132;DHT22;35149;51.196;6.204;2023-12-20T06:11:24;9.20;80.50
49132;DHT22;35149;51.196;6.204;2023-12-20T06:13:53;9.20;80.50
49132;DHT22;35149;51.196;6.204;2023-12-20T06:16:24;9.20;80.60
49132;DHT22;35149;51.196;6.204;2023-12-20T06:18:51;9.30;80.60
49132;DHT22;35149;51.196;6.204;2023-12-20T06:21:20;9.30;80.60
49132;DHT22;35149;51.196;6.204;2023-12-20T06:23:47;9.20;80.50
49132;DHT22;35149;51.196;6.204;2023-12-20T06:26:18;9.30;80.50
49132;DHT22;35149;51.196;6.204;2023-12-20T06:28:52;9.30;80.50
49132;DHT22;35149;51.196;6.204;2023-12-20T06:31:19;9.30;80.40
49132;DHT22;35149;51.196;6.204;2023-12-20T06:33:45;9.30;80.40
49132;DHT22;35149;51.196;6.204;2023-12-20T06:36:16;9.30;80.40
49132;DHT22;35149;51.196;6.204;2023-12-20T06:38:50;9.30;80.40
49132;DHT22;35149;51.196;6.204;2023-12-20T06:41:17;9.30;80.40
49132;DHT22;35149;51.196;6.204;2023-12-20T06:43:44;9.30;80.30
49132;DHT22;35149;51.196;6.204;2023-12-20T06:46:16;9.30;80.30
49132;DHT22;35149;51.196;6.204;2023-12-20T06:48:46;9.40;80.40
49132;DHT22;35149;51.196;6.204;2023-12-20T06:51:18;9.40;80.20
49132;DHT22;35149;51.196;6.204;2023-12-20T06:53:51;9.40;80.20
49132;DHT22;35149;51.196;6.204;2023-12-20T06:56:17;9.40;80.10
49132;DHT22;35149;51.196;6.204;2023-12-20T06:58:50;9.40;80.10
49132;DHT22;35149;51.196;6.204;2023-12-20T07:01:16;9.40;80.10
49132;DHT22;35149;51.196;6.204;2023-12-20T07:03:45;9.30;80.00
49132;DHT22;35149;51.196;6.204;2023-12-20T07:06:12;9.40;80.00
49132;DHT22;35149;51.196;6.204;2023-12-20T07:08:40;9.40;80.00
49132;DHT22;35149;51.196;6.204;2023-12-20T07:11:08;9.40;79.90
49132;DHT22;35149;51.196;6.204;2023-12-20T07:13:37;9.40;79.90
49132;DHT22;35149;51.196;6.204;2023-12-20T07:16:04;9.40;79.90
49132;DHT22;35149;51.196;6.204;2023-12-20T07:18:31;9.40;79.90
49132;DHT22;35149;51.196;6.204;2023-12-20T07:20:58;9.40;79.70
49132;DHT22;35149;51.196;6.204;2023-12-20T07:23:24;9.40;79.60
49132;DHT22;35149;51.196;6.204;2023-12-20T07:25:54;9.30;79.60
49132;DHT22;35149;51.196;6.204;2023-12-20T07:28:20;9.40;79.60
49132;DHT22;35149;51.196;6.204;2023-12-20T07:30:51;9.30;79.50
49132;DHT22;35149;51.196;6.204;2023-12-20T07:33:18;9.30;79.30
49132;DHT22;35149;51.196;6.204;2023-12-20T07:35:45;9.30;79.00
49132;DHT22;35149;51.196;6.204;2023-12-20T07:38:14;9.30;78.90
49132;DHT22;35149;51.196;6.204;2023-12-20T07:40:44;9.30;78.80
49132;DHT22;35149;51.196;6.204;2023-12-20T07:43:11;9.20;78.70
49132;DHT22;35149;51.196;6.204;2023-12-20T07:45:38;9.20;78.70
49132;DHT22;35149;51.196;6.204;2023-12-20T07:48:08;9.10;78.80
49132;DHT22;35149;51.196;6.204;2023-12-20T07:50:35;9.10;79.10
49132;DHT22;35149;51.196;6.204;2023-12-20T07:53:02;9.10;79.20
49132;DHT22;35149;51.196;6.204;2023-12-20T07:55:34;9.10;79.30
49132;DHT22;35149;51.196;6.204;2023-12-20T07:58:01;9.10;79.20
49132;DHT22;35149;51.196;6.204;2023-12-20T08:00:28;9.10;79.10
49132;DHT22;35149;51.196;6.204;2023-12-20T08:02:59;9.00;79.00
49132;DHT22;35149;51.196;6.204;2023-12-20T08:05:25;9.00;79.00
49132;DHT22;35149;51.196;6.204;2023-12-20T08:07:53;9.00;79.00
49132;DHT22;35149;51.196;6.204;2023-12-20T08:10:20;9.00;79.10
49132;DHT22;35149;51.196;6.204;2023-12-20T08:12:47;9.00;79.30
49132;DHT22;35149;51.196;6.204;2023-12-20T08:15:14;9.00;79.30
49132;DHT22;35149;51.196;6.204;2023-12-20T08:17:41;9.00;79.30
49132;DHT22;35149;51.196;6.204;2023-12-20T08:20:10;9.00;79.30
49132;DHT22;35149;51.196;6.204;2023-12-20T08:22:39;9.00;79.30
49132;DHT22;35149;51.196;6.204;2023-12-20T08:25:06;9.00;80.00
49132;DHT22;35149;51.196;6.204;2023-12-20T08:27:33;9.00;79.30
49132;DHT22;35149;51.196;6.204;2023-12-20T08:30:01;9.00;79.50
49132;DHT22;35149;51.196;6.204;2023-12-20T08:32:28;9.00;79.50
49132;DHT22;35149;51.196;6.204;2023-12-20T08:34:54;9.10;79.50
49132;DHT22;35149;51.196;6.204;2023-12-20T08:37:21;9.10;79.50
49132;DHT22;35149;51.196;6.204;2023-12-20T08:39:48;9.10;79.50
49132;DHT22;35149;51.196;6.204;2023-12-20T08:42:22;9.10;79.40
49132;DHT22;35149;51.196;6.204;2023-12-20T08:44:51;9.20;79.50
49132;DHT22;35149;51.196;6.204;2023-12-20T08:47:19;9.20;79.40
49132;DHT22;35149;51.196;6.204;2023-12-20T08:49:46;9.20;79.40
49132;DHT22;35149;51.196;6.204;2023-12-20T08:52:13;9.20;79.30
49132;DHT22;35149;51.196;6.204;2023-12-20T08:54:42;9.30;79.40
49132;DHT22;35149;51.196;6.204;2023-12-20T08:57:11;9.30;79.30
49132;DHT22;35149;51.196;6.204;2023-12-20T08:59:38;9.30;79.20
49132;DHT22;35149;51.196;6.204;2023-12-20T09:02:06;9.30;79.10
49132;DHT22;35149;51.196;6.204;2023-12-20T09:04:33;9.30;79.00
49132;DHT22;35149;51.196;6.204;2023-12-20T09:07:00;9.40;79.00
49132;DHT22;35149;51.196;6.204;2023-12-20T09:09:27;9.40;78.90
49132;DHT22;35149;51.196;6.204;2023-12-20T09:11:54;9.40;78.80
49132;DHT22;35149;51.196;6.204;2023-12-20T09:14:21;9.40;78.70
49132;DHT22;35149;51.196;6.204;2023-12-20T09:16:48;9.40;78.70
49132;DHT22;35149;51.196;6.204;2023-12-20T09:19:17;9.50;78.60
49132;DHT22;35149;51.196;6.204;2023-12-20T09:21:44;9.50;78.60
49132;DHT22;35149;51.196;6.204;2023-12-20T09:24:11;9.50;78.50
49132;DHT22;35149;51.196;6.204;2023-12-20T09:26:37;9.50;78.50
49132;DHT22;35149;51.196;6.204;2023-12-20T09:29:06;9.50;78.50
49132;DHT22;35149;51.196;6.204;2023-12-20T09:31:36;9.50;78.50
49132;DHT22;35149;51.196;6.204;2023-12-20T09:34:03;9.60;78.40
49132;DHT22;35149;51.196;6.204;2023-12-20T09:36:30;9.60;78.30
49132;DHT22;35149;51.196;6.204;2023-12-20T09:39:01;9.60;78.40
49132;DHT22;35149;51.196;6.204;2023-12-20T09:41:32;9.60;78.10
49132;DHT22;35149;51.196;6.204;2023-12-20T09:44:07;9.70;78.10
49132;DHT22;35149;51.196;6.204;2023-12-20T09:46:35;9.70;77.90
49132;DHT22;35149;51.196;6.204;2023-12-20T09:49:04;9.70;77.90
49132;DHT22;35149;51.196;6.204;2023-12-20T09:51:31;9.80;78.00
49132;DHT22;35149;51.196;6.204;2023-12-20T09:53:59;9.80;77.90
49132;DHT22;35149;51.196;6.204;2023-12-20T09:56:27;9.80;77.70
49132;DHT22;35149;51.196;6.204;2023-12-20T09:58:56;9.80;77.70
49132;DHT22;35149;51.196;6.204;2023-12-20T10:01:23;9.90;77.50
49132;DHT22;35149;51.196;6.204;2023-12-20T10:03:54;9.90;77.40
49132;DHT22;35149;51.196;6.204;2023-12-20T10:06:22;9.90;77.20
49132;DHT22;35149;51.196;6.204;2023-12-20T10:08:49;9.90;77.20
49132;DHT22;35149;51.196;6.204;2023-12-20T10:11:15;9.90;77.20
49132;DHT22;35149;51.196;6.204;2023-12-20T10:13:43;9.90;77.10
49132;DHT22;35149;51.196;6.204;2023-12-20T10:16:10;9.90;77.10
49132;DHT22;35149;51.196;6.204;2023-12-20T10:18:39;9.90;77.00
49132;DHT22;35149;51.196;6.204;2023-12-20T10:21:08;9.90;77.10
49132;DHT22;35149;51.196;6.204;2023-12-20T10:23:36;10.00;77.10
49132;DHT22;35149;51.196;6.204;2023-12-20T10:26:03;10.00;77.00
49132;DHT22;35149;51.196;6.204;2023-12-20T10:28:34;10.00;77.00
49132;DHT22;35149;51.196;6.204;2023-12-20T10:31:03;10.00;77.00
49132;DHT22;35149;51.196;6.204;2023-12-20T10:33:30;10.00;77.00
49132;DHT22;35149;51.196;6.204;2023-12-20T10:36:01;10.00;77.00
49132;DHT22;35149;51.196;6.204;2023-12-20T10:38:27;10.10;77.00
49132;DHT22;35149;51.196;6.204;2023-12-20T10:40:57;10.10;76.90
49132;DHT22;35149;51.196;6.204;2023-12-20T10:43:30;10.10;77.00
49132;DHT22;35149;51.196;6.204;2023-12-20T10:45:59;10.10;76.90
49132;DHT22;35149;51.196;6.204;2023-12-20T10:48:26;10.10;76.80
49132;DHT22;35149;51.196;6.204;2023-12-20T10:50:58;10.20;76.80
49132;DHT22;35149;51.196;6.204;2023-12-20T10:53:25;10.20;76.60
49132;DHT22;35149;51.196;6.204;2023-12-20T10:55:55;10.20;76.60
49132;DHT22;35149;51.196;6.204;2023-12-20T10:58:26;10.20;76.50
49132;DHT22;35149;51.196;6.204;2023-12-20T11:01:01;10.20;76.50
49132;DHT22;35149;51.196;6.204;2023-12-20T11:03:35;10.30;76.20
49132;DHT22;35149;51.196;6.204;2023-12-20T11:06:35;10.30;76.20
49132;DHT22;35149;51.196;6.204;2023-12-20T11:12:05;10.30;76.00
49132;DHT22;35149;51.196;6.204;2023-12-20T11:14:42;10.30;76.20
49132;DHT22;35149;51.196;6.204;2023-12-20T11:17:11;10.30;76.20
49132;DHT22;35149;51.196;6.204;2023-12-20T11:22:26;10.30;76.00
49132;DHT22;35149;51.196;6.204;2023-12-20T11:24:53;10.30;76.20
49132;DHT22;35149;51.196;6.204;2023-12-20T11:27:20;10.30;76.00
49132;DHT22;35149;51.196;6.204;2023-12-20T11:29:54;10.30;76.10
49132;DHT22;35149;51.196;6.204;2023-12-20T11:34:54;10.30;76.10
49132;DHT22;35149;51.196;6.204;2023-12-20T11:37:22;10.30;76.20
49132;DHT22;35149;51.196;6.204;2023-12-20T11:39:59;10.30;76.20
49132;DHT22;35149;51.196;6.204;2023-12-20T11:42:28;10.30;76.00
49132;DHT22;35149;51.196;6.204;2023-12-20T11:45:01;10.30;76.10
49132;DHT22;35149;51.196;6.204;2023-12-20T11:47:31;10.30;76.10
49132;DHT22;35149;51.196;6.204;2023-12-20T11:49:58;10.30;76.20
49132;DHT22;35149;51.196;6.204;2023-12-20T11:52:27;10.20;76.10
49132;DHT22;35149;51.196;6.204;2023-12-20T11:54:53;10.20;76.30
49132;DHT22;35149;51.196;6.204;2023-12-20T11:57:20;10.20;76.40
49132;DHT22;35149;51.196;6.204;2023-12-20T11:59:47;10.20;76.50
49132;DHT22;35149;51.196;6.204;2023-12-20T12:02:14;10.20;76.60
49132;DHT22;35149;51.196;6.204;2023-12-20T12:04:43;10.20;76.60
49132;DHT22;35149;51.196;6.204;2023-12-20T12:07:11;10.20;76.80
49132;DHT22;35149;51.196;6.204;2023-12-20T12:09:40;10.20;76.90
49132;DHT22;35149;51.196;6.204;2023-12-20T12:12:07;10.20;76.90
49132;DHT22;35149;51.196;6.204;2023-12-20T12:14:38;10.20;77.00
49132;DHT22;35149;51.196;6.204;2023-12-20T12:17:04;10.20;77.20
49132;DHT22;35149;51.196;6.204;2023-12-20T12:19:31;10.20;77.40
49132;DHT22;35149;51.196;6.204;2023-12-20T12:24:40;10.20;77.10
49132;DHT22;35149;51.196;6.204;2023-12-20T12:27:11;10.20;77.20
49132;DHT22;35149;51.196;6.204;2023-12-20T12:29:38;10.20;77.30
49132;DHT22;35149;51.196;6.204;2023-12-20T12:32:09;10.30;77.40
49132;DHT22;35149;51.196;6.204;2023-12-20T12:34:36;10.30;77.30
49132;DHT22;35149;51.196;6.204;2023-12-20T12:37:06;10.30;77.30
49132;DHT22;35149;51.196;6.204;2023-12-20T12:39:34;10.30;77.20
49132;DHT22;35149;51.196;6.204;2023-12-20T12:42:00;10.30;77.20
49132;DHT22;35149;51.196;6.204;2023-12-20T12:44:27;10.30;77.30
49132;DHT22;35149;51.196;6.204;2023-12-20T12:46:54;10.40;77.30
49132;DHT22;35149;51.196;6.204;2023-12-20T12:49:21;10.30;77.30
49132;DHT22;35149;51.196;6.204;2023-12-20T12:51:51;10.40;77.60
49132;DHT22;35149;51.196;6.204;2023-12-20T12:54:18;10.30;77.70
49132;DHT22;35149;51.196;6.204;2023-12-20T12:56:45;10.40;77.80
49132;DHT22;35149;51.196;6.204;2023-12-20T12:59:14;10.40;77.80
49132;DHT22;35149;51.196;6.204;2023-12-20T13:01:41;10.40;77.60
49132;DHT22;35149;51.196;6.204;2023-12-20T13:04:08;10.40;77.60
49132;DHT22;35149;51.196;6.204;2023-12-20T13:06:38;10.40;77.60
49132;DHT22;35149;51.196;6.204;2023-12-20T13:09:07;10.40;77.90
49132;DHT22;35149;51.196;6.204;2023-12-20T13:11:36;10.40;77.60
49132;DHT22;35149;51.196;6.204;2023-12-20T13:14:03;10.40;77.60
49132;DHT22;35149;51.196;6.204;2023-12-20T13:16:30;10.40;77.60
49132;DHT22;35149;51.196;6.204;2023-12-20T13:18:57;10.40;77.70
49132;DHT22;35149;51.196;6.204;2023-12-20T13:21:26;10.40;77.70
49132;DHT22;35149;51.196;6.204;2023-12-20T13:23:53;10.40;77.80
49132;DHT22;35149;51.196;6.204;2023-12-20T13:26:20;10.40;77.80
49132;DHT22;35149;51.196;6.204;2023-12-20T13:28:47;10.40;77.80
49132;DHT22;35149;51.196;6.204;2023-12-20T13:31:19;10.30;77.90
49132;DHT22;35149;51.196;6.204;2023-12-20T13:33:49;10.30;77.90
49132;DHT22;35149;51.196;6.204;2023-12-20T13:36:16;10.30;78.00
49132;DHT22;35149;51.196;6.204;2023-12-20T13:38:43;10.30;78.20
49132;DHT22;35149;51.196;6.204;2023-12-20T13:41:10;10.30;78.20
49132;DHT22;35149;51.196;6.204;2023-12-20T13:43:36;10.30;78.40
49132;DHT22;35149;51.196;6.204;2023-12-20T13:46:04;10.30;78.40
49132;DHT22;35149;51.196;6.204;2023-12-20T13:48:31;10.30;78.50
49132;DHT22;35149;51.196;6.204;2023-12-20T13:50:58;10.30;78.60
49132;DHT22;35149;51.196;6.204;2023-12-20T13:53:24;10.40;78.80
49132;DHT22;35149;51.196;6.204;2023-12-20T13:55:51;10.40;78.80
49132;DHT22;35149;51.196;6.204;2023-12-20T13:58:19;10.40;78.80
49132;DHT22;35149;51.196;6.204;2023-12-20T14:00:46;10.50;78.90
49132;DHT22;35149;51.196;6.204;2023-12-20T14:03:16;10.50;78.80
49132;DHT22;35149;51.196;6.204;2023-12-20T14:05:43;10.60;78.80
49132;DHT22;35149;51.196;6.204;2023-12-20T14:08:09;10.60;78.70
49132;DHT22;35149;51.196;6.204;2023-12-20T14:10:36;10.60;78.50
49132;DHT22;35149;51.196;6.204;2023-12-20T14:13:03;10.60;78.50
49132;DHT22;35149;51.196;6.204;2023-12-20T14:15:31;10.60;78.40
49132;DHT22;35149;51.196;6.204;2023-12-20T14:18:05;10.70;78.40
49132;DHT22;35149;51.196;6.204;2023-12-20T14:20:35;10.70;78.30
49132;DHT22;35149;51.196;6.204;2023-12-20T14:23:03;10.70;78.20
49132;DHT22;35149;51.196;6.204;2023-12-20T14:25:29;10.70;78.20
49132;DHT22;35149;51.196;6.204;2023-12-20T14:28:14;10.80;78.30
49132;DHT22;35149;51.196;6.204;2023-12-20T14:30:41;10.80;78.20
49132;DHT22;35149;51.196;6.204;2023-12-20T14:33:08;10.80;78.10
49132;DHT22;35149;51.196;6.204;2023-12-20T14:35:36;10.80;78.10
49132;DHT22;35149;51.196;6.204;2023-12-20T14:38:02;10.80;78.10
49132;DHT22;35149;51.196;6.204;2023-12-20T14:40:29;10.80;78.10
49132;DHT22;35149;51.196;6.204;2023-12-20T14:42:59;10.80;78.10
49132;DHT22;35149;51.196;6.204;2023-12-20T14:45:26;10.80;78.10
49132;DHT22;35149;51.196;6.204;2023-12-20T14:47:54;10.80;78.10
49132;DHT22;35149;51.196;6.204;2023-12-20T14:50:20;10.80;78.10
49132;DHT22;35149;51.196;6.204;2023-12-20T14:52:49;10.80;78.10
49132;DHT22;35149;51.196;6.204;2023-12-20T14:55:16;10.80;78.10
49132;DHT22;35149;51.196;6.204;2023-12-20T14:57:43;10.80;78.10
49132;DHT22;35149;51.196;6.204;2023-12-20T15:00:12;10.80;78.10
49132;DHT22;35149;51.196;6.204;2023-12-20T15:02:43;10.80;78.10
49132;DHT22;35149;51.196;6.204;2023-12-20T15:05:10;10.80;78.00
49132;DHT22;35149;51.196;6.204;2023-12-20T15:07:36;10.80;78.00
49132;DHT22;35149;51.196;6.204;2023-12-20T15:10:04;10.80;78.00
49132;DHT22;35149;51.196;6.204;2023-12-20T15:12:32;10.80;78.00
49132;DHT22;35149;51.196;6.204;2023-12-20T15:15:00;10.70;77.90
49132;DHT22;35149;51.196;6.204;2023-12-20T15:17:27;10.80;77.90
49132;DHT22;35149;51.196;6.204;2023-12-20T15:19:54;10.80;77.80
49132;DHT22;35149;51.196;6.204;2023-12-20T15:22:22;10.80;77.80
49132;DHT22;35149;51.196;6.204;2023-12-20T15:24:48;10.80;77.80
49132;DHT22;35149;51.196;6.204;2023-12-20T15:27:17;10.70;77.80
49132;DHT22;35149;51.196;6.204;2023-12-20T15:29:44;10.70;77.70
49132;DHT22;35149;51.196;6.204;2023-12-20T15:32:10;10.70;77.60
49132;DHT22;35149;51.196;6.204;2023-12-20T15:34:37;10.70;77.60
49132;DHT22;35149;51.196;6.204;2023-12-20T15:37:04;10.70;77.60
49132;DHT22;35149;51.196;6.204;2023-12-20T15:39:31;10.70;77.60
49132;DHT22;35149;51.196;6.204;2023-12-20T15:41:59;10.70;77.60
49132;DHT22;35149;51.196;6.204;2023-12-20T15:44:25;10.70;77.60
49132;DHT22;35149;51.196;6.204;2023-12-20T15:46:54;10.70;77.60
49132;DHT22;35149;51.196;6.204;2023-12-20T15:49:21;10.60;77.70
49132;DHT22;35149;51.196;6.204;2023-12-20T15:51:48;10.70;77.80
49132;DHT22;35149;51.196;6.204;2023-12-20T15:54:15;10.70;77.80
49132;DHT22;35149;51.196;6.204;2023-12-20T15:56:44;10.70;77.90
49132;DHT22;35149;51.196;6.204;2023-12-20T15:59:15;10.70;77.80